createdAt,value
2023-12-17T00:02:15.521Z,12.25
2023-12-17T00:04:42.028Z,12.88
2023-12-17T00:07:08.461Z,11.02
2023-12-17T00:09:34.884Z,10.90
2023-12-17T00:12:01.276Z,10.75
2023-12-17T00:14:27.771Z,10.23
2023-12-17T00:16:54.116Z,10.75
2023-12-17T00:19:20.528Z,12.13
2023-12-17T00:21:46.916Z,11.43
2023-12-17T00:24:13.644Z,10.07
2023-12-17T00:26:40.028Z,11.05
2023-12-17T00:29:06.461Z,11.45
2023-12-17T00:31:32.832Z,10.77
2023-12-17T00:33:59.419Z,10.90
2023-12-17T00:36:25.970Z,10.90
2023-12-17T00:38:52.383Z,12.10
2023-12-17T00:41:18.758Z,10.13
2023-12-17T00:43:45.087Z,10.43
2023-12-17T00:46:11.429Z,10.90
2023-12-17T00:48:37.925Z,10.63
2023-12-17T00:51:04.611Z,9.55
2023-12-17T00:53:31.001Z,9.07
2023-12-17T00:55:57.372Z,9.15
2023-12-17T00:58:23.713Z,8.77
2023-12-17T01:00:55.225Z,8.75
2023-12-17T01:03:22.669Z,9.38
2023-12-17T01:05:49.350Z,9.68
2023-12-17T01:08:15.868Z,9.80
2023-12-17T01:10:42.315Z,10.93
2023-12-17T01:13:08.738Z,9.85
2023-12-17T01:15:35.163Z,9.63
2023-12-17T01:18:01.851Z,10.07
2023-12-17T01:20:28.358Z,9.20
2023-12-17T01:22:54.691Z,9.00
2023-12-17T01:25:21.066Z,9.48
2023-12-17T01:27:47.421Z,9.32
2023-12-17T01:30:14.096Z,9.13
2023-12-17T01:32:40.653Z,9.48
2023-12-17T01:35:07.325Z,9.75
2023-12-17T01:37:33.729Z,8.57
2023-12-17T01:40:00.208Z,8.75
2023-12-17T01:42:26.638Z,9.25
2023-12-17T01:44:53.035Z,9.63
2023-12-17T01:47:19.546Z,8.90
2023-12-17T01:49:46.141Z,9.15
2023-12-17T01:52:12.721Z,9.45
2023-12-17T01:54:39.138Z,8.57
2023-12-17T01:57:06.299Z,9.23
2023-12-17T01:59:33.444Z,9.45
2023-12-17T02:02:01.232Z,9.38
2023-12-17T02:04:27.661Z,9.07
2023-12-17T02:06:54.184Z,10.13
2023-12-17T02:09:20.750Z,8.48
2023-12-17T02:11:47.256Z,7.72
2023-12-17T02:14:13.606Z,8.55
2023-12-17T02:16:39.985Z,8.00
2023-12-17T02:19:06.505Z,8.95
2023-12-17T02:21:32.943Z,9.18
2023-12-17T02:23:59.382Z,10.02
2023-12-17T02:26:25.817Z,9.05
2023-12-17T02:28:52.150Z,8.32
2023-12-17T02:31:18.608Z,7.82
2023-12-17T02:33:45.188Z,8.05
2023-12-17T02:36:11.741Z,8.82
2023-12-17T02:38:38.118Z,8.25
2023-12-17T02:41:04.684Z,8.57
2023-12-17T02:43:31.095Z,8.10
2023-12-17T02:45:57.476Z,8.18
2023-12-17T02:48:23.993Z,8.32
2023-12-17T02:50:50.508Z,7.57
2023-12-17T02:53:16.841Z,8.50
2023-12-17T02:55:43.277Z,8.25
2023-12-17T02:58:09.652Z,7.75
2023-12-17T03:00:36.127Z,7.63
2023-12-17T03:03:02.561Z,8.05
2023-12-17T03:05:29.068Z,8.20
2023-12-17T03:07:55.472Z,9.82
2023-12-17T03:10:21.935Z,9.10
2023-12-17T03:12:48.288Z,8.20
2023-12-17T03:15:14.955Z,8.32
2023-12-17T03:17:41.740Z,7.38
2023-12-17T03:20:08.854Z,7.28
2023-12-17T03:22:35.235Z,7.57
2023-12-17T03:25:01.620Z,7.88
2023-12-17T03:27:27.974Z,7.55
2023-12-17T03:29:54.491Z,8.20
2023-12-17T03:32:20.984Z,8.68
2023-12-17T03:34:48.215Z,7.40
2023-12-17T03:37:14.671Z,7.55
2023-12-17T03:39:41.033Z,7.90
2023-12-17T03:42:07.510Z,7.88
2023-12-17T03:44:33.866Z,8.02
2023-12-17T03:47:00.292Z,7.90
2023-12-17T03:49:26.764Z,7.90
2023-12-17T03:51:53.154Z,6.97
2023-12-17T03:54:19.533Z,7.85
2023-12-17T03:56:47.160Z,7.75
2023-12-17T03:59:13.521Z,7.35
2023-12-17T04:01:47.638Z,8.80
2023-12-17T04:06:42.795Z,6.53
2023-12-17T04:09:10.039Z,7.18
2023-12-17T04:11:36.787Z,7.68
2023-12-17T04:14:03.376Z,7.38
2023-12-17T04:16:29.733Z,7.13
2023-12-17T04:18:56.282Z,7.20
2023-12-17T04:21:22.897Z,7.05
2023-12-17T04:23:49.378Z,6.93
2023-12-17T04:26:15.786Z,7.65
2023-12-17T04:28:42.208Z,7.30
2023-12-17T04:31:08.601Z,7.22
2023-12-17T04:33:35.154Z,7.60
2023-12-17T04:36:01.606Z,7.40
2023-12-17T04:38:27.988Z,6.47
2023-12-17T04:40:54.329Z,7.00
2023-12-17T04:43:20.749Z,7.05
2023-12-17T04:45:47.079Z,7.30
2023-12-17T04:48:13.605Z,7.47
2023-12-17T04:50:40.033Z,7.03
2023-12-17T04:53:06.372Z,5.85
2023-12-17T04:55:32.724Z,7.38
2023-12-17T04:57:59.028Z,6.28
2023-12-17T05:00:25.471Z,7.13
2023-12-17T05:02:52.401Z,6.70
2023-12-17T05:05:18.950Z,7.38
2023-12-17T05:07:45.869Z,6.95
2023-12-17T05:10:12.375Z,6.40
2023-12-17T05:12:38.699Z,7.28
2023-12-17T05:15:05.681Z,7.65
2023-12-17T05:17:32.280Z,7.07
2023-12-17T05:19:58.742Z,7.45
2023-12-17T05:22:25.152Z,7.25
2023-12-17T05:24:51.578Z,6.45
2023-12-17T05:27:17.971Z,6.10
2023-12-17T05:29:44.404Z,6.03
2023-12-17T05:32:10.844Z,7.18
2023-12-17T05:34:37.325Z,7.00
2023-12-17T05:37:03.896Z,6.60
2023-12-17T05:39:30.449Z,6.82
2023-12-17T05:41:56.904Z,7.00
2023-12-17T05:44:23.327Z,7.47
2023-12-17T05:46:49.826Z,6.45
2023-12-17T05:49:16.398Z,6.65
2023-12-17T05:51:44.297Z,7.10
2023-12-17T05:54:10.712Z,6.88
2023-12-17T05:56:41.261Z,7.78
2023-12-17T05:59:07.696Z,6.63
2023-12-17T06:01:34.858Z,6.10
2023-12-17T06:04:01.612Z,6.53
2023-12-17T06:06:30.556Z,6.38
2023-12-17T06:08:57.313Z,6.97
2023-12-17T06:11:23.791Z,7.30
2023-12-17T06:13:50.140Z,6.55
2023-12-17T06:16:16.549Z,6.90
2023-12-17T06:18:43.013Z,6.63
2023-12-17T06:21:09.524Z,6.82
2023-12-17T06:23:35.905Z,7.00
2023-12-17T06:26:02.282Z,6.68
2023-12-17T06:28:28.604Z,6.32
2023-12-17T06:30:55.133Z,7.40
2023-12-17T06:33:21.724Z,5.90
2023-12-17T06:35:48.257Z,6.25
2023-12-17T06:38:14.655Z,7.07
2023-12-17T06:40:41.000Z,6.82
2023-12-17T06:43:07.439Z,7.28
2023-12-17T06:45:33.851Z,6.07
2023-12-17T06:48:00.333Z,7.03
2023-12-17T06:50:26.732Z,6.90
2023-12-17T06:52:53.109Z,6.88
2023-12-17T06:55:19.544Z,7.25
2023-12-17T06:57:45.951Z,7.60
2023-12-17T07:00:13.010Z,6.93
2023-12-17T07:02:39.459Z,7.43
2023-12-17T07:05:06.222Z,7.43
2023-12-17T07:07:32.606Z,6.75
2023-12-17T07:09:59.009Z,7.85
2023-12-17T07:12:25.462Z,7.57
2023-12-17T07:14:51.926Z,8.30
2023-12-17T07:17:18.352Z,7.57
2023-12-17T07:19:44.705Z,8.35
2023-12-17T07:22:11.087Z,10.18
2023-12-17T07:24:37.422Z,8.70
2023-12-17T07:27:04.155Z,7.85
2023-12-17T07:29:30.553Z,7.95
2023-12-17T07:31:56.967Z,8.90
2023-12-17T07:34:23.415Z,8.70
2023-12-17T07:36:49.812Z,8.32
2023-12-17T07:39:16.342Z,9.23
2023-12-17T07:41:42.773Z,10.38
2023-12-17T07:44:09.116Z,10.82
2023-12-17T07:46:35.542Z,7.93
2023-12-17T07:49:02.189Z,7.85
2023-12-17T07:51:28.823Z,8.48
2023-12-17T07:53:55.341Z,7.93
2023-12-17T07:56:21.730Z,7.30
2023-12-17T07:58:48.141Z,7.78
2023-12-17T08:01:15.514Z,6.93
2023-12-17T08:03:43.037Z,8.30
2023-12-17T08:06:09.584Z,8.73
2023-12-17T08:08:36.018Z,8.20
2023-12-17T08:11:02.348Z,8.82
2023-12-17T08:13:28.714Z,8.55
2023-12-17T08:15:55.049Z,9.60
2023-12-17T08:18:21.457Z,7.95
2023-12-17T08:20:47.896Z,8.80
2023-12-17T08:23:14.269Z,8.27
2023-12-17T08:25:40.622Z,7.57
2023-12-17T08:28:07.090Z,9.18
2023-12-17T08:30:33.574Z,9.70
2023-12-17T08:33:00.011Z,9.23
2023-12-17T08:35:26.614Z,9.95
2023-12-17T08:37:53.021Z,10.45
2023-12-17T08:40:20.186Z,9.18
2023-12-17T08:42:47.766Z,8.35
2023-12-17T08:45:14.306Z,10.15
2023-12-17T08:47:41.034Z,9.68
2023-12-17T08:50:08.329Z,9.68
2023-12-17T08:52:34.787Z,9.30
2023-12-17T08:55:01.133Z,9.70
2023-12-17T08:57:27.634Z,8.57
2023-12-17T08:59:54.055Z,7.88
2023-12-17T09:02:20.405Z,7.38
2023-12-17T09:04:46.781Z,7.47
2023-12-17T09:07:13.144Z,7.03
2023-12-17T09:09:39.508Z,7.43
2023-12-17T09:12:06.374Z,8.20
2023-12-17T09:14:32.795Z,8.35
2023-12-17T09:17:00.229Z,8.90
2023-12-17T09:19:26.669Z,8.55
2023-12-17T09:21:53.159Z,8.95
2023-12-17T09:24:19.681Z,9.18
2023-12-17T09:26:46.092Z,10.90
2023-12-17T09:29:12.420Z,10.45
2023-12-17T09:31:38.790Z,9.38
2023-12-17T09:34:05.200Z,11.75
2023-12-17T09:36:31.708Z,12.70
2023-12-17T09:38:58.143Z,9.13
2023-12-17T09:41:24.734Z,9.93
2023-12-17T09:43:51.138Z,9.50
2023-12-17T09:46:18.752Z,9.30
2023-12-17T09:48:46.662Z,8.43
2023-12-17T09:51:14.057Z,9.07
2023-12-17T09:53:40.920Z,7.90
2023-12-17T09:56:08.621Z,9.13
2023-12-17T09:58:34.990Z,9.25
2023-12-17T10:01:01.492Z,8.13
2023-12-17T10:03:28.056Z,8.73
2023-12-17T10:05:55.035Z,8.40
2023-12-17T10:08:21.692Z,9.48
2023-12-17T10:10:48.070Z,8.43
2023-12-17T10:13:19.080Z,8.25
2023-12-17T10:15:52.784Z,8.13
2023-12-17T10:18:20.345Z,7.65
2023-12-17T10:20:48.122Z,9.65
2023-12-17T10:23:15.163Z,8.85
2023-12-17T10:25:42.285Z,8.63
2023-12-17T10:28:11.135Z,8.50
2023-12-17T10:30:38.499Z,7.93
2023-12-17T10:33:05.788Z,8.63
2023-12-17T10:35:33.095Z,8.77
2023-12-17T10:38:01.943Z,9.15
2023-12-17T10:40:29.912Z,8.10
2023-12-17T10:42:57.421Z,10.18
2023-12-17T10:45:25.284Z,13.02
2023-12-17T10:47:53.494Z,8.40
2023-12-17T10:50:21.271Z,7.68
2023-12-17T10:52:47.968Z,7.95
2023-12-17T10:55:14.928Z,8.40
2023-12-17T10:57:45.976Z,7.95
2023-12-17T11:00:14.624Z,7.72
2023-12-17T11:02:41.778Z,6.85
2023-12-17T11:05:08.419Z,8.15
2023-12-17T11:07:38.447Z,7.32
2023-12-17T11:10:10.910Z,6.85
2023-12-17T11:12:37.650Z,8.85
2023-12-17T11:15:05.020Z,8.77
2023-12-17T11:17:31.567Z,9.13
2023-12-17T11:20:00.847Z,9.07
2023-12-17T11:22:28.539Z,8.02
2023-12-17T11:24:57.320Z,8.73
2023-12-17T11:27:25.328Z,7.25
2023-12-17T11:29:56.397Z,7.05
2023-12-17T11:32:24.702Z,7.18
2023-12-17T11:34:52.569Z,7.13
2023-12-17T11:37:20.286Z,7.05
2023-12-17T11:42:14.542Z,6.45
2023-12-17T11:44:48.861Z,7.43
2023-12-17T11:47:17.062Z,6.88
2023-12-17T11:49:43.665Z,7.75
2023-12-17T11:52:13.105Z,7.00
2023-12-17T11:54:39.561Z,10.43
2023-12-17T11:57:17.966Z,12.55
2023-12-17T11:59:44.604Z,10.75
2023-12-17T12:02:11.576Z,9.93
2023-12-17T12:04:41.800Z,10.98
2023-12-17T12:07:09.503Z,8.38
2023-12-17T12:12:02.574Z,6.97
2023-12-17T12:14:29.082Z,7.07
2023-12-17T12:16:55.463Z,6.82
2023-12-17T12:19:26.850Z,6.93
2023-12-17T12:21:56.115Z,6.40
2023-12-17T12:24:22.714Z,6.35
2023-12-17T12:26:49.470Z,10.60
2023-12-17T12:29:15.959Z,10.02
2023-12-17T12:31:52.179Z,22.73
2023-12-17T12:34:18.747Z,13.27
2023-12-17T12:36:46.857Z,9.15
2023-12-17T12:39:14.701Z,9.90
2023-12-17T12:41:45.228Z,7.68
2023-12-17T12:44:13.545Z,7.38
2023-12-17T12:46:40.769Z,7.25
2023-12-17T12:49:07.695Z,7.00
2023-12-17T12:51:35.253Z,6.35
2023-12-17T12:54:02.206Z,7.28
2023-12-17T12:56:28.530Z,7.40
2023-12-17T12:58:55.068Z,6.63
2023-12-17T13:01:21.543Z,7.13
2023-12-17T13:03:48.026Z,7.45
2023-12-17T13:06:14.525Z,7.07
2023-12-17T13:08:40.990Z,8.02
2023-12-17T13:11:07.509Z,6.63
2023-12-17T13:13:34.050Z,6.13
2023-12-17T13:16:00.462Z,9.00
2023-12-17T13:18:27.673Z,8.25
2023-12-17T13:20:54.092Z,8.15
2023-12-17T13:23:20.835Z,6.82
2023-12-17T13:25:47.339Z,6.38
2023-12-17T13:28:13.705Z,6.70
2023-12-17T13:30:40.227Z,6.78
2023-12-17T13:33:06.730Z,6.90
2023-12-17T13:35:33.188Z,6.35
2023-12-17T13:37:59.764Z,5.30
2023-12-17T13:40:26.217Z,6.68
2023-12-17T13:42:52.640Z,6.05
2023-12-17T13:45:19.107Z,5.80
2023-12-17T13:47:45.833Z,5.68
2023-12-17T13:50:13.015Z,6.60
2023-12-17T13:52:39.461Z,5.95
2023-12-17T13:55:06.038Z,6.15
2023-12-17T13:57:32.762Z,5.65
2023-12-17T13:59:59.113Z,6.05
2023-12-17T14:02:25.647Z,5.68
2023-12-17T14:04:52.322Z,5.63
2023-12-17T14:07:20.751Z,6.00
2023-12-17T14:09:47.138Z,6.57
2023-12-17T14:12:13.494Z,6.45
2023-12-17T14:14:40.191Z,6.30
2023-12-17T14:17:06.556Z,5.50
2023-12-17T14:19:32.954Z,6.15
2023-12-17T14:21:59.467Z,5.70
2023-12-17T14:24:26.019Z,5.80
2023-12-17T14:26:55.097Z,5.85
2023-12-17T14:29:21.457Z,6.53
2023-12-17T14:31:47.856Z,5.43
2023-12-17T14:34:14.600Z,6.18
2023-12-17T14:36:41.047Z,6.78
2023-12-17T14:39:07.661Z,6.53
2023-12-17T14:41:34.316Z,5.95
2023-12-17T14:44:00.738Z,6.30
2023-12-17T14:46:27.108Z,6.07
2023-12-17T14:48:53.610Z,6.03
2023-12-17T14:51:20.154Z,5.85
2023-12-17T14:53:53.369Z,6.03
2023-12-17T14:56:24.873Z,6.90
2023-12-17T14:58:51.257Z,6.50
2023-12-17T15:01:24.866Z,7.43
2023-12-17T15:03:55.092Z,7.03
2023-12-17T15:06:21.544Z,6.93
2023-12-17T15:08:47.967Z,7.10
2023-12-17T15:11:14.386Z,7.82
2023-12-17T15:13:40.737Z,7.63
2023-12-17T15:16:07.232Z,6.70
2023-12-17T15:18:33.709Z,7.93
2023-12-17T15:21:00.231Z,8.32
2023-12-17T15:23:26.692Z,9.45
2023-12-17T15:25:53.097Z,10.10
2023-12-17T15:28:19.540Z,10.18
2023-12-17T15:30:46.033Z,10.80
2023-12-17T15:33:12.552Z,10.02
2023-12-17T15:35:39.011Z,8.85
2023-12-17T15:38:05.359Z,8.10
2023-12-17T15:40:31.708Z,9.68
2023-12-17T15:42:58.047Z,10.63
2023-12-17T15:45:24.552Z,7.70
2023-12-17T15:47:51.119Z,6.10
2023-12-17T15:50:17.822Z,6.70
2023-12-17T15:52:44.806Z,7.72
2023-12-17T15:55:11.234Z,7.30
2023-12-17T15:57:37.789Z,9.40
2023-12-17T16:00:04.421Z,12.40
2023-12-17T16:02:31.070Z,18.42
2023-12-17T16:04:57.595Z,25.38
2023-12-17T16:07:24.185Z,17.45
2023-12-17T16:09:50.617Z,21.10
2023-12-17T16:12:16.966Z,19.05
2023-12-17T16:14:43.543Z,15.95
2023-12-17T16:17:09.921Z,14.65
2023-12-17T16:19:39.317Z,14.40
2023-12-17T16:22:05.753Z,12.75
2023-12-17T16:24:32.145Z,12.25
2023-12-17T16:26:58.529Z,10.25
2023-12-17T16:29:24.927Z,9.85
2023-12-17T16:31:51.321Z,10.40
2023-12-17T16:34:17.752Z,10.15
2023-12-17T16:36:44.281Z,11.48
2023-12-17T16:39:10.706Z,12.48
2023-12-17T16:41:37.156Z,11.45
2023-12-17T16:44:03.629Z,8.88
2023-12-17T16:46:29.991Z,9.95
2023-12-17T16:48:58.917Z,9.30
2023-12-17T16:51:26.710Z,10.10
2023-12-17T16:53:53.224Z,10.70
2023-12-17T16:56:19.663Z,10.80
2023-12-17T16:58:46.067Z,9.13
2023-12-17T17:01:12.426Z,9.43
2023-12-17T17:03:38.933Z,9.27
2023-12-17T17:06:05.585Z,9.63
2023-12-17T17:08:31.939Z,9.13
2023-12-17T17:11:04.642Z,8.57
2023-12-17T17:13:33.743Z,7.68
2023-12-17T17:16:00.192Z,7.32
2023-12-17T17:18:26.710Z,6.38
2023-12-17T17:20:53.463Z,7.22
2023-12-17T17:23:19.874Z,6.80
2023-12-17T17:25:46.256Z,7.32
2023-12-17T17:28:12.663Z,7.22
2023-12-17T17:30:39.192Z,6.75
2023-12-17T17:33:05.786Z,7.03
2023-12-17T17:35:32.159Z,6.88
2023-12-17T17:37:58.459Z,7.15
2023-12-17T17:40:24.827Z,8.10
2023-12-17T17:42:51.217Z,9.57
2023-12-17T17:45:17.625Z,14.30
2023-12-17T17:47:44.040Z,10.00
2023-12-17T17:50:10.475Z,11.23
2023-12-17T17:52:36.826Z,9.80
2023-12-17T17:55:03.225Z,10.82
2023-12-17T17:57:29.650Z,8.30
2023-12-17T17:59:56.066Z,8.82
2023-12-17T18:02:22.675Z,7.88
2023-12-17T18:04:49.058Z,7.70
2023-12-17T18:07:15.463Z,7.72
2023-12-17T18:09:41.812Z,7.97
2023-12-17T18:12:09.329Z,9.38
2023-12-17T18:14:35.711Z,7.60
2023-12-17T18:17:02.136Z,7.57
2023-12-17T18:19:28.758Z,7.82
2023-12-17T18:21:55.180Z,8.13
2023-12-17T18:24:21.604Z,7.45
2023-12-17T18:26:48.081Z,7.75
2023-12-17T18:29:14.460Z,8.15
2023-12-17T18:31:42.624Z,7.30
2023-12-17T18:34:09.296Z,7.38
2023-12-17T18:36:35.864Z,7.32
2023-12-17T18:39:02.288Z,7.82
2023-12-17T18:41:28.704Z,14.00
2023-12-17T18:43:55.276Z,15.35
2023-12-17T18:46:22.024Z,15.05
2023-12-17T18:48:48.681Z,13.60
2023-12-17T18:51:15.707Z,13.95
2023-12-17T18:53:43.179Z,11.02
2023-12-17T18:56:09.584Z,10.90
2023-12-17T18:58:36.049Z,14.50
2023-12-17T19:01:02.774Z,12.38
2023-12-17T19:03:29.449Z,11.70
2023-12-17T19:05:56.085Z,10.80
2023-12-17T19:08:22.624Z,10.45
2023-12-17T19:10:49.071Z,9.98
2023-12-17T19:13:15.490Z,9.13
2023-12-17T19:15:42.066Z,8.98
2023-12-17T19:18:08.666Z,9.65
2023-12-17T19:20:35.932Z,11.10
2023-12-17T19:23:02.326Z,10.02
2023-12-17T19:25:28.671Z,9.32
2023-12-17T19:27:55.064Z,11.20
2023-12-17T19:30:21.500Z,9.77
2023-12-17T19:32:48.050Z,8.80
2023-12-17T19:35:14.491Z,9.15
2023-12-17T19:37:40.903Z,9.95
2023-12-17T19:40:07.789Z,9.52
2023-12-17T19:42:34.252Z,10.70
2023-12-17T19:45:00.919Z,12.63
2023-12-17T19:47:27.307Z,13.15
2023-12-17T19:49:53.991Z,13.15
2023-12-17T19:52:20.330Z,11.82
2023-12-17T19:54:46.706Z,11.43
2023-12-17T19:57:13.263Z,11.80
2023-12-17T19:59:39.645Z,11.23
2023-12-17T20:02:06.904Z,10.70
2023-12-17T20:04:33.622Z,11.82
2023-12-17T20:07:00.247Z,11.48
2023-12-17T20:09:26.849Z,9.90
2023-12-17T20:11:56.056Z,9.35
2023-12-17T20:14:22.543Z,8.13
2023-12-17T20:16:48.923Z,8.23
2023-12-17T20:19:15.454Z,8.32
2023-12-17T20:21:41.933Z,9.52
2023-12-17T20:24:08.317Z,8.73
2023-12-17T20:26:34.926Z,9.13
2023-12-17T20:29:01.305Z,8.43
2023-12-17T20:31:27.681Z,8.43
2023-12-17T20:33:54.218Z,8.07
2023-12-17T20:36:20.709Z,9.02
2023-12-17T20:38:47.154Z,8.07
2023-12-17T20:41:17.499Z,8.45
2023-12-17T20:43:44.388Z,8.70
2023-12-17T20:46:10.770Z,9.70
2023-12-17T20:48:37.304Z,8.95
2023-12-17T20:51:04.299Z,9.00
2023-12-17T20:53:30.647Z,9.05
2023-12-17T20:55:56.969Z,9.63
2023-12-17T20:58:23.431Z,10.43
2023-12-17T21:00:50.854Z,10.65
2023-12-17T21:03:17.555Z,11.10
2023-12-17T21:05:44.018Z,11.30
2023-12-17T21:08:10.475Z,11.68
2023-12-17T21:10:36.870Z,10.25
2023-12-17T21:13:03.350Z,9.57
2023-12-17T21:15:29.776Z,10.45
2023-12-17T21:17:57.173Z,10.38
2023-12-17T21:20:23.639Z,8.50
2023-12-17T21:22:50.031Z,10.32
2023-12-17T21:25:16.635Z,9.55
2023-12-17T21:27:43.276Z,8.70
2023-12-17T21:30:10.188Z,8.50
2023-12-17T21:32:36.702Z,9.55
2023-12-17T21:35:03.227Z,9.30
2023-12-17T21:37:30.642Z,9.68
2023-12-17T21:39:57.142Z,9.25
2023-12-17T21:42:23.571Z,9.38
2023-12-17T21:44:50.186Z,10.38
2023-12-17T21:47:16.579Z,9.15
2023-12-17T21:49:43.213Z,9.93
2023-12-17T21:52:22.679Z,9.38
2023-12-17T21:54:57.789Z,9.85
2023-12-17T21:57:24.240Z,10.45
2023-12-17T21:59:50.674Z,10.80
2023-12-17T22:02:17.410Z,10.65
2023-12-17T22:04:43.812Z,10.80
2023-12-17T22:07:10.254Z,10.73
2023-12-17T22:09:39.505Z,12.30
2023-12-17T22:12:06.541Z,12.30
2023-12-17T22:14:33.082Z,12.52
2023-12-17T22:16:59.584Z,11.73
2023-12-17T22:19:26.119Z,10.52
2023-12-17T22:21:52.547Z,11.77
2023-12-17T22:24:19.088Z,11.50
2023-12-17T22:26:45.749Z,10.85
2023-12-17T22:29:12.232Z,11.82
2023-12-17T22:31:39.264Z,12.15
2023-12-17T22:34:05.997Z,11.98
2023-12-17T22:36:32.566Z,11.50
2023-12-17T22:38:59.110Z,11.80
2023-12-17T22:41:25.473Z,13.52
2023-12-17T22:43:53.212Z,13.35
2023-12-17T22:46:19.673Z,10.15
2023-12-17T22:48:46.131Z,11.52
2023-12-17T22:51:15.581Z,10.88
2023-12-17T22:53:42.072Z,10.38
2023-12-17T22:56:08.530Z,9.70
2023-12-17T22:58:35.000Z,10.27
2023-12-17T23:01:01.518Z,10.93
2023-12-17T23:03:28.002Z,12.05
2023-12-17T23:05:54.416Z,12.25
2023-12-17T23:08:20.776Z,13.77
2023-12-17T23:10:47.174Z,11.45
2023-12-17T23:13:13.510Z,11.75
2023-12-17T23:15:39.938Z,11.05
2023-12-17T23:18:06.414Z,10.50
2023-12-17T23:20:32.862Z,9.80
2023-12-17T23:22:59.192Z,9.57
2023-12-17T23:25:25.548Z,10.18
2023-12-17T23:27:51.902Z,11.60
2023-12-17T23:30:18.466Z,11.70
2023-12-17T23:32:45.067Z,12.93
2023-12-17T23:35:11.480Z,12.07
2023-12-17T23:37:37.817Z,11.00
2023-12-17T23:40:04.620Z,10.23
2023-12-17T23:42:31.115Z,12.68
2023-12-17T23:44:57.612Z,12.07
2023-12-17T23:47:23.970Z,10.30
2023-12-17T23:49:50.426Z,11.48
2023-12-17T23:52:16.779Z,10.35
2023-12-17T23:54:43.308Z,9.52
2023-12-17T23:57:09.740Z,9.55
2023-12-17T23:59:36.132Z,9.50
